Terminal Aerodrome Forecast
Issued by NWS

Home | Current Version | Previous Version | Text Only | Print | Product List | Glossary On
Versions: 1 2 3 4 5 6 7 8 9 10 11 12 13
000
FTUS42 TJSJ 052344
TAFJBQ
TAF
TJBQ 052344Z 0600/0624 10011G19KT P6SM SCT030 SCT070
     FM060300 11010KT P6SM FEW030
     FM061330 08018G25KT P6SM FEW030 SCT050
     FM062230 10010KT P6SM SCT030
      AMD NOT SKED 0602/0611=

USA.gov is the U.S. government's official web portal to all federal, state and local government web resources and services.